createdAt,value
2019-03-09T00:02:12.648Z,67.10
2019-03-09T00:07:16.286Z,67.00
2019-03-09T00:12:20.209Z,67.20
2019-03-09T00:17:24.371Z,66.30
2019-03-09T00:22:28.398Z,67.30
2019-03-09T00:27:34.145Z,67.30
2019-03-09T00:32:37.873Z,67.30
2019-03-09T00:37:41.533Z,67.50
2019-03-09T00:42:45.185Z,67.70
2019-03-09T00:47:48.882Z,67.40
2019-03-09T00:52:52.465Z,67.40
2019-03-09T00:57:56.186Z,67.60
2019-03-09T01:03:00.146Z,67.70
2019-03-09T01:08:03.858Z,67.70
2019-03-09T01:13:07.788Z,67.40
2019-03-09T01:18:11.948Z,67.70
2019-03-09T01:23:15.841Z,68.00
2019-03-09T01:28:19.580Z,68.20
2019-03-09T01:33:23.287Z,68.30
2019-03-09T01:38:26.939Z,68.70
2019-03-09T01:43:30.835Z,69.10
2019-03-09T01:48:34.430Z,69.10
2019-03-09T01:53:38.089Z,69.40
2019-03-09T01:58:42.317Z,69.30
2019-03-09T02:03:45.975Z,68.90
2019-03-09T02:08:49.548Z,68.70
2019-03-09T02:13:53.117Z,68.90
2019-03-09T02:18:56.784Z,69.10
2019-03-09T02:24:00.389Z,69.40
2019-03-09T02:29:04.121Z,69.80
2019-03-09T02:34:08.120Z,70.00
2019-03-09T02:39:19.549Z,70.10
2019-03-09T02:44:23.211Z,70.50
2019-03-09T02:49:26.797Z,70.60
2019-03-09T02:54:30.452Z,71.00
2019-03-09T02:59:34.155Z,71.40
2019-03-09T03:04:38.108Z,71.50
2019-03-09T03:09:42.162Z,71.90
2019-03-09T03:14:45.745Z,71.80
2019-03-09T03:19:49.818Z,71.40
2019-03-09T03:24:53.569Z,71.50
2019-03-09T03:29:57.250Z,71.40
2019-03-09T03:35:00.901Z,71.50
2019-03-09T03:40:07.735Z,71.70
2019-03-09T03:45:30.717Z,70.70
2019-03-09T03:50:34.679Z,70.60
2019-03-09T03:55:38.395Z,70.40
2019-03-09T04:00:42.109Z,70.30
2019-03-09T04:05:45.839Z,70.20
2019-03-09T04:10:50.066Z,68.70
2019-03-09T04:15:53.794Z,66.80
2019-03-09T04:20:57.507Z,65.40
2019-03-09T04:26:20.482Z,65.20
2019-03-09T04:31:24.268Z,65.60
2019-03-09T04:36:27.940Z,65.90
2019-03-09T04:41:31.553Z,65.60
2019-03-09T04:46:35.129Z,65.70
2019-03-09T04:51:38.722Z,66.60
2019-03-09T04:56:42.302Z,65.90
2019-03-09T05:01:46.021Z,66.60
2019-03-09T05:06:50.192Z,67.20
2019-03-09T05:11:53.840Z,67.60
2019-03-09T05:16:57.506Z,68.00
2019-03-09T05:22:01.176Z,68.70
2019-03-09T05:27:05.332Z,69.40
2019-03-09T05:32:08.992Z,70.20
2019-03-09T05:37:12.584Z,70.20
2019-03-09T05:42:16.581Z,70.50
2019-03-09T05:47:20.227Z,71.10
2019-03-09T05:52:26.930Z,71.30
2019-03-09T05:57:30.589Z,71.60
2019-03-09T06:02:34.189Z,71.90
2019-03-09T06:07:37.763Z,72.60
2019-03-09T06:12:41.342Z,73.40
2019-03-09T06:17:44.957Z,74.10
2019-03-09T06:22:48.761Z,74.90
2019-03-09T06:27:52.494Z,76.30
2019-03-09T06:33:17.758Z,77.10
2019-03-09T06:38:44.094Z,78.10
2019-03-09T06:44:07.102Z,80.10
2019-03-09T06:49:12.395Z,81.40
2019-03-09T06:54:15.980Z,81.90
2019-03-09T06:59:19.650Z,82.10
2019-03-09T07:04:23.300Z,82.40
2019-03-09T07:09:26.898Z,82.20
2019-03-09T07:14:53.311Z,82.20
2019-03-09T07:19:56.900Z,81.70
2019-03-09T07:25:00.498Z,81.40
2019-03-09T07:30:07.389Z,80.00
2019-03-09T07:35:11.444Z,80.00
2019-03-09T07:40:16.728Z,79.80
2019-03-09T07:45:39.824Z,80.20
2019-03-09T07:50:43.410Z,80.10
2019-03-09T07:55:47.130Z,80.60
2019-03-09T08:00:50.859Z,80.30
2019-03-09T08:05:54.942Z,79.90
2019-03-09T08:10:59.055Z,80.00
2019-03-09T08:16:02.659Z,79.60
2019-03-09T08:21:06.658Z,79.30
2019-03-09T08:26:10.399Z,78.50
2019-03-09T08:31:14.345Z,78.70
2019-03-09T08:36:18.366Z,78.80
2019-03-09T08:41:22.092Z,77.40
2019-03-09T08:46:26.183Z,77.20
2019-03-09T08:51:29.920Z,76.10
2019-03-09T08:56:33.842Z,76.10
2019-03-09T09:01:37.465Z,75.00
2019-03-09T09:06:41.010Z,74.60
2019-03-09T09:11:44.814Z,74.80
2019-03-09T09:16:48.410Z,74.30
2019-03-09T09:21:53.701Z,74.20
2019-03-09T09:26:57.289Z,74.70
2019-03-09T09:32:00.880Z,74.40
2019-03-09T09:37:04.678Z,74.90
2019-03-09T09:42:08.350Z,74.70
2019-03-09T09:47:12.407Z,74.40
2019-03-09T09:52:16.306Z,74.80
2019-03-09T09:57:19.911Z,74.20
2019-03-09T10:02:23.779Z,74.50
2019-03-09T10:07:27.663Z,74.60
2019-03-09T10:12:31.328Z,74.10
2019-03-09T10:17:35.457Z,74.00
2019-03-09T10:22:39.131Z,73.50
2019-03-09T10:27:43.075Z,73.20
2019-03-09T10:32:47.111Z,72.60
2019-03-09T10:37:50.964Z,72.10
2019-03-09T10:42:54.626Z,71.70
2019-03-09T10:47:58.405Z,72.10
2019-03-09T10:53:01.992Z,72.40
2019-03-09T10:58:05.689Z,72.70
2019-03-09T11:03:09.905Z,72.70
2019-03-09T11:08:13.560Z,72.50
2019-03-09T11:13:17.188Z,72.50
2019-03-09T11:18:20.929Z,72.70
2019-03-09T11:23:24.688Z,72.40
2019-03-09T11:28:28.265Z,72.10
2019-03-09T11:33:32.012Z,72.40
2019-03-09T11:38:35.688Z,72.30
2019-03-09T11:43:39.281Z,73.00
2019-03-09T11:48:42.863Z,73.20
2019-03-09T11:53:46.518Z,73.40
2019-03-09T11:58:50.664Z,72.90
2019-03-09T12:03:54.255Z,72.70
2019-03-09T12:08:57.970Z,72.60
2019-03-09T12:14:01.589Z,72.50
2019-03-09T12:19:05.467Z,71.80
2019-03-09T12:24:28.608Z,72.10
2019-03-09T12:29:32.651Z,72.00
2019-03-09T12:34:36.248Z,72.60
2019-03-09T12:39:39.904Z,73.10
2019-03-09T12:44:43.620Z,74.50
2019-03-09T12:49:47.349Z,78.40
2019-03-09T12:54:51.010Z,82.10
2019-03-09T12:59:54.681Z,84.60
2019-03-09T13:04:58.371Z,86.30
2019-03-09T13:10:02.340Z,89.20
2019-03-09T13:15:08.435Z,90.50
2019-03-09T13:20:14.564Z,90.90
2019-03-09T13:25:18.632Z,91.80
2019-03-09T13:30:23.645Z,92.40
2019-03-09T13:35:27.317Z,91.50
2019-03-09T13:40:50.246Z,92.10
2019-03-09T13:45:53.916Z,91.40
2019-03-09T13:50:57.512Z,91.30
2019-03-09T13:56:01.108Z,90.50
2019-03-09T14:01:04.833Z,90.30
2019-03-09T14:06:08.568Z,89.90
2019-03-09T14:11:12.218Z,88.60
2019-03-09T14:16:15.776Z,86.60
2019-03-09T14:21:19.522Z,85.40
2019-03-09T14:26:23.189Z,85.10
2019-03-09T14:31:27.200Z,85.20
2019-03-09T14:36:30.861Z,85.10
2019-03-09T14:41:34.464Z,86.00
2019-03-09T14:46:38.082Z,86.80
2019-03-09T14:51:41.657Z,89.10
2019-03-09T14:56:45.407Z,89.50
2019-03-09T15:01:49.146Z,90.10
2019-03-09T15:06:52.757Z,90.20
2019-03-09T15:11:56.431Z,90.40
2019-03-09T15:17:00.341Z,90.00
2019-03-09T15:22:04.341Z,88.60
2019-03-09T15:27:08.076Z,88.40
2019-03-09T15:32:12.009Z,87.00
2019-03-09T15:37:15.678Z,86.40
2019-03-09T15:42:19.748Z,85.60
2019-03-09T15:47:23.783Z,84.70
2019-03-09T15:52:27.733Z,84.80
2019-03-09T15:57:31.469Z,84.90
2019-03-09T16:02:35.245Z,84.60
2019-03-09T16:07:38.828Z,84.60
2019-03-09T16:12:42.668Z,84.40
2019-03-09T16:17:46.426Z,85.00
2019-03-09T16:22:50.162Z,84.60
2019-03-09T16:27:53.919Z,83.60
2019-03-09T16:32:57.588Z,83.90
2019-03-09T16:38:01.564Z,83.60
2019-03-09T16:43:05.299Z,84.00
2019-03-09T16:48:09.298Z,84.30
2019-03-09T16:53:13.042Z,83.80
2019-03-09T16:58:16.624Z,83.90
2019-03-09T17:03:20.302Z,84.10
2019-03-09T17:08:26.646Z,83.50
2019-03-09T17:13:30.422Z,83.40
2019-03-09T17:18:34.608Z,83.40
2019-03-09T17:23:38.220Z,82.60
2019-03-09T17:28:41.822Z,81.60
2019-03-09T17:33:45.804Z,81.40
2019-03-09T17:38:49.721Z,81.80
2019-03-09T17:43:53.462Z,82.40
2019-03-09T17:48:57.223Z,82.60
2019-03-09T17:54:00.978Z,82.50
2019-03-09T17:59:04.629Z,81.70
2019-03-09T18:04:08.509Z,80.70
2019-03-09T18:09:15.787Z,80.70
2019-03-09T18:14:19.782Z,80.20
2019-03-09T18:19:24.093Z,80.00
2019-03-09T18:24:28.640Z,79.60
2019-03-09T18:29:34.116Z,80.50
2019-03-09T18:34:38.080Z,80.00
2019-03-09T18:39:41.749Z,79.60
2019-03-09T18:44:45.419Z,81.50
2019-03-09T18:49:49.016Z,81.60
2019-03-09T18:54:52.781Z,81.90
2019-03-09T18:59:56.377Z,81.00
2019-03-09T19:05:00.119Z,81.70
2019-03-09T19:10:06.132Z,81.90
2019-03-09T19:15:12.680Z,82.50
2019-03-09T19:20:17.591Z,81.70
2019-03-09T19:25:22.717Z,82.20
2019-03-09T19:30:26.801Z,81.30
2019-03-09T19:35:30.834Z,81.00
2019-03-09T19:40:35.763Z,81.40
2019-03-09T19:45:39.380Z,81.70
2019-03-09T19:50:43.112Z,81.30
2019-03-09T19:55:46.797Z,81.10
2019-03-09T20:00:50.465Z,81.20
2019-03-09T20:05:54.133Z,81.50
2019-03-09T20:10:57.789Z,82.00
2019-03-09T20:16:01.420Z,82.30
2019-03-09T20:21:05.511Z,82.50
2019-03-09T20:26:09.649Z,82.40
2019-03-09T20:31:13.648Z,82.10
2019-03-09T20:36:17.481Z,81.90
2019-03-09T20:41:21.573Z,82.00
2019-03-09T20:46:25.259Z,82.10
2019-03-09T20:51:29.884Z,82.20
2019-03-09T20:56:33.941Z,82.60
2019-03-09T21:01:37.687Z,82.60
2019-03-09T21:06:41.911Z,82.40
2019-03-09T21:11:46.811Z,82.00
2019-03-09T21:16:51.765Z,81.10
2019-03-09T21:21:55.462Z,81.70
2019-03-09T21:26:59.878Z,81.80
2019-03-09T21:32:04.100Z,81.90
2019-03-09T21:37:07.877Z,81.50
2019-03-09T21:42:11.514Z,81.30
2019-03-09T21:47:17.067Z,80.80
2019-03-09T21:52:20.922Z,80.80
2019-03-09T21:57:24.458Z,80.50
2019-03-09T22:02:28.045Z,80.50
2019-03-09T22:07:31.931Z,80.70
2019-03-09T22:12:35.653Z,80.70
2019-03-09T22:17:39.544Z,81.00
2019-03-09T22:22:43.303Z,81.00
2019-03-09T22:27:47.224Z,81.00
2019-03-09T22:32:50.881Z,81.30
2019-03-09T22:37:54.619Z,81.50
2019-03-09T22:42:58.292Z,81.30
2019-03-09T22:48:02.357Z,81.40
2019-03-09T22:53:06.026Z,81.40
2019-03-09T22:58:09.693Z,81.40
2019-03-09T23:03:13.377Z,81.10
2019-03-09T23:08:20.006Z,81.20
2019-03-09T23:13:23.650Z,80.80
2019-03-09T23:18:27.731Z,80.80
2019-03-09T23:23:31.377Z,81.00
2019-03-09T23:28:45.668Z,81.20
2019-03-09T23:33:49.398Z,81.60
2019-03-09T23:38:53.059Z,81.60
2019-03-09T23:43:56.719Z,81.20
2019-03-09T23:49:00.463Z,80.60
2019-03-09T23:54:04.188Z,81.60
2019-03-09T23:59:07.842Z,81.60
